Time;durP1;ratioP1;P1;durP2;ratioP2;P2;SDS_P1;SDS_P2;PMS_P1;PMS_P2;Temp;Humidity;BMP_temperature;BMP_pressure;BME280_temperature;BME280_humidity;BME280_pressure;Samples;Min_cycle;Max_cycle;Signal;HPM_P1;HPM_P2
2023/11/09 00:01:44;;;;;;;9.50;7.10;;;9.10;99.90;;;;;;5063464;28;20175;-69
2023/11/09 00:04:09;;;;;;;10.30;6.17;;;9.10;99.90;;;;;;5059718;28;21016;-69
2023/11/09 00:06:35;;;;;;;8.17;5.57;;;9.10;99.90;;;;;;5060975;28;20413;-69
2023/11/09 00:09:01;;;;;;;7.37;5.70;;;9.00;99.90;;;;;;5064646;28;20456;-69
2023/11/09 00:11:26;;;;;;;6.27;5.37;;;9.00;99.90;;;;;;5060602;28;20202;-69
2023/11/09 00:13:52;;;;;;;8.90;5.33;;;9.00;99.90;;;;;;5059478;28;20758;-68
2023/11/09 00:16:18;;;;;;;8.20;4.73;;;9.00;99.90;;;;;;5056208;28;20187;-69
2023/11/09 00:18:44;;;;;;;6.07;4.20;;;9.00;99.90;;;;;;5059811;28;20175;-69
2023/11/09 00:21:09;;;;;;;7.30;5.23;;;8.90;99.90;;;;;;5062366;28;20546;-69
2023/11/09 00:23:35;;;;;;;6.83;5.07;;;8.90;99.90;;;;;;5057432;28;20195;-69
2023/11/09 00:26:01;;;;;;;6.77;4.90;;;8.90;99.90;;;;;;5060387;28;20602;-68
2023/11/09 00:28:27;;;;;;;7.80;5.40;;;8.80;99.90;;;;;;5060308;28;20190;-68
2023/11/09 00:30:52;;;;;;;7.77;5.37;;;8.80;99.90;;;;;;5060721;28;20210;-68
2023/11/09 00:33:18;;;;;;;6.27;5.10;;;8.80;99.90;;;;;;5057799;28;20206;-69
2023/11/09 00:35:45;;;;;;;7.53;5.47;;;8.80;99.90;;;;;;5062057;28;20198;-68
2023/11/09 00:38:14;;;;;;;7.83;5.60;;;8.80;99.90;;;;;;5060602;28;20294;-68
2023/11/09 00:40:41;;;;;;;8.20;5.03;;;8.80;99.90;;;;;;5065968;28;20397;-69
2023/11/09 00:43:06;;;;;;;10.70;5.30;;;8.80;99.90;;;;;;5060843;28;20788;-69
2023/11/09 00:45:34;;;;;;;5.87;4.40;;;8.80;99.90;;;;;;5064188;28;20458;-68
2023/11/09 00:48:03;;;;;;;5.40;4.60;;;8.90;99.90;;;;;;5062917;28;20175;-69
2023/11/09 00:50:29;;;;;;;8.80;4.83;;;8.80;99.90;;;;;;5061620;28;20506;-69
2023/11/09 00:52:55;;;;;;;7.40;5.53;;;8.80;99.90;;;;;;5065673;28;20620;-68
2023/11/09 00:55:20;;;;;;;5.80;4.50;;;8.90;99.90;;;;;;5063597;28;20530;-68
2023/11/09 00:57:46;;;;;;;7.40;4.33;;;8.90;99.90;;;;;;5063244;28;20177;-68
2023/11/09 01:00:12;;;;;;;11.23;5.00;;;8.90;99.90;;;;;;5066162;28;20260;-68
2023/11/09 01:02:39;;;;;;;8.70;5.13;;;8.90;99.90;;;;;;5065290;28;20198;-68
2023/11/09 01:05:06;;;;;;;5.33;4.67;;;8.90;99.90;;;;;;5068207;28;20425;-68
2023/11/09 01:07:33;;;;;;;10.37;4.37;;;8.90;99.90;;;;;;5061222;28;20425;-68
2023/11/09 01:09:59;;;;;;;5.80;4.80;;;8.90;99.90;;;;;;5063398;28;20422;-68
2023/11/09 01:12:26;;;;;;;6.53;4.90;;;8.90;99.90;;;;;;5064115;28;20437;-68
2023/11/09 01:14:54;;;;;;;5.80;3.90;;;8.90;99.90;;;;;;5068675;28;20468;-68
2023/11/09 01:17:20;;;;;;;4.90;4.40;;;8.90;99.90;;;;;;5061013;28;20483;-68
2023/11/09 01:19:45;;;;;;;5.63;4.53;;;8.90;99.90;;;;;;5063196;28;20464;-68
2023/11/09 01:22:12;;;;;;;5.73;4.40;;;8.90;99.90;;;;;;5058946;28;20269;-68
2023/11/09 01:24:37;;;;;;;7.53;4.77;;;8.90;99.90;;;;;;5063123;28;20618;-69
2023/11/09 01:27:03;;;;;;;5.80;4.20;;;8.90;99.90;;;;;;5064654;28;20444;-69
2023/11/09 01:29:29;;;;;;;6.57;4.40;;;8.90;99.90;;;;;;5064313;28;20197;-69
2023/11/09 01:31:54;;;;;;;6.87;4.77;;;8.90;99.90;;;;;;5061635;28;20504;-68
2023/11/09 01:34:21;;;;;;;5.57;3.80;;;8.90;99.90;;;;;;5064771;28;20295;-69
2023/11/09 01:36:46;;;;;;;6.57;4.83;;;8.90;99.90;;;;;;5064360;28;20175;-69
2023/11/09 01:39:12;;;;;;;9.33;3.80;;;8.90;99.90;;;;;;5066312;28;20421;-69
2023/11/09 01:41:38;;;;;;;5.30;4.37;;;8.90;99.90;;;;;;5063188;28;20262;-67
2023/11/09 01:44:04;;;;;;;5.90;3.93;;;8.90;99.90;;;;;;5060939;28;20465;-67
2023/11/09 01:46:31;;;;;;;6.80;4.40;;;8.90;99.90;;;;;;5063411;28;21081;-68
2023/11/09 01:48:58;;;;;;;5.53;4.00;;;8.90;99.90;;;;;;5063619;28;20426;-69
2023/11/09 01:51:25;;;;;;;6.50;3.90;;;8.90;99.90;;;;;;5058494;28;20441;-68
2023/11/09 01:53:51;;;;;;;7.53;4.23;;;8.90;99.90;;;;;;5065645;28;20475;-69
2023/11/09 01:56:18;;;;;;;7.00;4.20;;;8.90;99.90;;;;;;5063823;28;20430;-68
2023/11/09 01:58:47;;;;;;;6.03;4.20;;;8.90;99.90;;;;;;5064157;28;20984;-68
2023/11/09 02:01:13;;;;;;;6.83;3.70;;;8.90;99.90;;;;;;5061376;28;20427;-68
2023/11/09 02:03:42;;;;;;;6.03;3.70;;;8.90;99.90;;;;;;5060431;28;20510;-69
2023/11/09 02:06:09;;;;;;;5.67;3.80;;;8.90;99.90;;;;;;5059656;28;20469;-67
2023/11/09 02:08:36;;;;;;;5.23;3.90;;;8.90;99.90;;;;;;5059185;28;20490;-69
2023/11/09 02:11:02;;;;;;;5.47;4.00;;;8.90;99.90;;;;;;5062721;28;20449;-68
2023/11/09 02:13:27;;;;;;;4.80;4.20;;;8.90;99.90;;;;;;5062028;28;20912;-68
2023/11/09 02:15:55;;;;;;;5.33;3.67;;;8.90;99.90;;;;;;5057854;28;20195;-68
2023/11/09 02:18:21;;;;;;;4.80;3.80;;;8.90;99.90;;;;;;5063254;28;20194;-69
2023/11/09 02:20:51;;;;;;;5.10;4.03;;;8.90;99.90;;;;;;5058273;28;20424;-68
2023/11/09 02:23:23;;;;;;;5.93;3.97;;;8.80;99.90;;;;;;5062872;28;20875;-68
2023/11/09 02:25:49;;;;;;;6.27;3.57;;;8.80;99.90;;;;;;5063263;28;20425;-68
2023/11/09 02:28:15;;;;;;;6.00;3.53;;;8.80;99.90;;;;;;5065275;28;20453;-68
2023/11/09 02:30:41;;;;;;;5.97;3.80;;;8.80;99.90;;;;;;5060312;28;20468;-68
2023/11/09 02:33:08;;;;;;;4.90;3.20;;;8.80;99.90;;;;;;5061861;28;20198;-68
2023/11/09 02:35:34;;;;;;;6.83;4.07;;;8.90;99.90;;;;;;5060978;28;20466;-67
2023/11/09 02:37:59;;;;;;;5.23;4.50;;;8.80;99.90;;;;;;5058268;28;20476;-67
2023/11/09 02:40:25;;;;;;;7.97;4.13;;;8.80;99.90;;;;;;5063646;28;20186;-68
2023/11/09 02:42:50;;;;;;;5.23;3.83;;;8.80;99.90;;;;;;5062235;28;20668;-68
2023/11/09 02:45:16;;;;;;;5.63;4.13;;;8.80;99.90;;;;;;5059505;28;20191;-68
2023/11/09 02:47:41;;;;;;;5.00;4.10;;;8.80;99.90;;;;;;5063178;28;20191;-68
2023/11/09 02:50:07;;;;;;;7.83;3.97;;;8.80;99.90;;;;;;5064484;28;20187;-68
2023/11/09 02:52:33;;;;;;;4.07;3.40;;;8.80;99.90;;;;;;5061916;28;20211;-68
2023/11/09 02:54:59;;;;;;;6.17;4.17;;;8.70;99.90;;;;;;5062171;28;20460;-68
2023/11/09 02:57:27;;;;;;;6.30;4.03;;;8.70;99.90;;;;;;5061947;28;20183;-68
2023/11/09 02:59:54;;;;;;;5.10;3.40;;;8.70;99.90;;;;;;5055832;28;20828;-68
2023/11/09 03:02:20;;;;;;;7.03;4.87;;;8.70;99.90;;;;;;5061501;28;20434;-69
2023/11/09 03:04:46;;;;;;;15.90;4.50;;;8.70;99.90;;;;;;5063786;28;20478;-69
2023/11/09 03:07:13;;;;;;;5.20;3.73;;;8.70;99.90;;;;;;5063875;28;20421;-69
2023/11/09 03:09:39;;;;;;;8.77;4.20;;;8.70;99.90;;;;;;5063275;28;20429;-70
2023/11/09 03:12:06;;;;;;;5.50;4.73;;;8.70;99.90;;;;;;5063201;28;20424;-69
2023/11/09 03:14:35;;;;;;;7.27;3.93;;;8.70;99.90;;;;;;5066634;28;20606;-68
2023/11/09 03:17:03;;;;;;;7.73;5.17;;;8.70;99.90;;;;;;5068548;28;20452;-68
2023/11/09 03:19:28;;;;;;;5.63;3.80;;;8.60;99.90;;;;;;5069884;28;20785;-68
2023/11/09 03:21:54;;;;;;;5.00;4.00;;;8.70;99.90;;;;;;5070450;28;20425;-68
2023/11/09 03:24:19;;;;;;;9.83;4.20;;;8.70;99.90;;;;;;5063691;28;20889;-68
2023/11/09 03:26:46;;;;;;;8.33;5.07;;;8.70;99.90;;;;;;5071007;28;20186;-68
2023/11/09 03:29:12;;;;;;;6.50;3.43;;;8.60;99.90;;;;;;5062771;28;20189;-68
2023/11/09 03:31:37;;;;;;;7.43;4.03;;;8.70;99.90;;;;;;5065372;28;20512;-70
2023/11/09 03:34:03;;;;;;;5.10;3.47;;;8.70;99.90;;;;;;5059146;28;20207;-68
2023/11/09 03:36:29;;;;;;;5.77;3.57;;;8.60;99.90;;;;;;5061964;28;20199;-68
2023/11/09 03:38:55;;;;;;;8.30;3.50;;;8.60;99.90;;;;;;5064787;28;20183;-68
2023/11/09 03:41:23;;;;;;;7.07;3.93;;;8.70;99.90;;;;;;5060369;28;20434;-68
2023/11/09 03:43:48;;;;;;;6.17;3.67;;;8.70;99.90;;;;;;5059557;28;20257;-68
2023/11/09 03:46:14;;;;;;;5.87;3.80;;;8.70;99.90;;;;;;5062176;28;20429;-68
2023/11/09 03:48:40;;;;;;;5.53;3.67;;;8.70;99.90;;;;;;5060941;28;20187;-69
2023/11/09 03:51:06;;;;;;;11.47;4.10;;;8.70;99.90;;;;;;5060660;28;20309;-68
2023/11/09 03:53:31;;;;;;;7.97;3.83;;;8.60;99.90;;;;;;5058609;28;20540;-68
2023/11/09 03:55:57;;;;;;;5.70;3.60;;;8.60;99.90;;;;;;5061680;28;20191;-68
2023/11/09 03:58:23;;;;;;;6.30;4.20;;;8.60;99.90;;;;;;5061110;28;20286;-68
2023/11/09 04:00:48;;;;;;;7.13;3.77;;;8.60;99.90;;;;;;5057633;28;20535;-68
2023/11/09 04:03:14;;;;;;;5.17;4.33;;;8.60;99.90;;;;;;5062845;28;20217;-68
2023/11/09 04:05:40;;;;;;;7.83;4.50;;;8.60;99.90;;;;;;5055756;28;20700;-68
2023/11/09 04:08:06;;;;;;;5.23;3.63;;;8.60;99.90;;;;;;5064672;28;20710;-67
2023/11/09 04:10:31;;;;;;;7.20;3.40;;;8.60;99.90;;;;;;5056926;28;20445;-68
2023/11/09 04:13:00;;;;;;;5.37;3.70;;;8.60;99.90;;;;;;5062742;28;20595;-68
2023/11/09 04:15:25;;;;;;;5.00;4.20;;;8.60;99.90;;;;;;5065396;28;20253;-68
2023/11/09 04:17:51;;;;;;;5.60;3.23;;;8.60;99.90;;;;;;5061402;28;20838;-67
2023/11/09 04:20:17;;;;;;;7.23;3.77;;;8.50;99.90;;;;;;5060656;28;20212;-68
2023/11/09 04:22:43;;;;;;;5.10;3.50;;;8.50;99.90;;;;;;5058774;28;20586;-68
2023/11/09 04:25:10;;;;;;;5.10;3.50;;;8.50;99.90;;;;;;5060826;28;20413;-68
2023/11/09 04:27:37;;;;;;;11.00;3.67;;;8.50;99.90;;;;;;5059422;28;20433;-67
2023/11/09 04:30:03;;;;;;;5.00;3.53;;;8.50;99.90;;;;;;5059053;28;20513;-68
2023/11/09 04:32:29;;;;;;;6.40;4.30;;;8.50;99.90;;;;;;5059887;28;20459;-68
2023/11/09 04:34:56;;;;;;;6.20;3.30;;;8.50;99.90;;;;;;5060567;28;20469;-67
2023/11/09 04:37:25;;;;;;;6.57;3.20;;;8.50;99.90;;;;;;5058303;28;20855;-67
2023/11/09 04:39:57;;;;;;;5.37;3.33;;;8.50;99.90;;;;;;5061000;28;20405;-67
2023/11/09 04:42:29;;;;;;;4.17;2.97;;;8.50;99.90;;;;;;5060715;28;20434;-67
2023/11/09 04:44:56;;;;;;;5.90;3.10;;;8.40;99.90;;;;;;5057203;28;20440;-68
2023/11/09 04:47:25;;;;;;;4.27;3.00;;;8.50;99.90;;;;;;5059496;28;20415;-68
2023/11/09 04:49:58;;;;;;;7.43;3.10;;;8.50;99.90;;;;;;5060207;28;20538;-68
2023/11/09 04:52:26;;;;;;;5.83;3.33;;;8.50;99.90;;;;;;5062545;28;20549;-67
2023/11/09 04:55:10;;;;;;;12.77;4.00;;;8.50;99.90;;;;;;5061225;28;20453;-67
2023/11/09 05:08:34;;;;;;;3.90;3.30;;;8.50;99.90;;;;;;5055436;28;20431;-67
2023/11/09 05:11:00;;;;;;;5.10;3.10;;;8.50;99.90;;;;;;5058367;28;20421;-68
2023/11/09 05:13:26;;;;;;;4.77;3.30;;;8.50;99.90;;;;;;5059169;28;20635;-68
2023/11/09 05:15:52;;;;;;;5.23;3.20;;;8.50;99.90;;;;;;5058336;28;20633;-68
2023/11/09 05:18:18;;;;;;;7.80;3.90;;;8.50;99.90;;;;;;5058565;28;20435;-69
2023/11/09 05:20:43;;;;;;;7.30;4.00;;;8.60;99.90;;;;;;5058821;28;20205;-68
2023/11/09 05:23:09;;;;;;;4.37;3.20;;;8.60;99.90;;;;;;5060548;28;20453;-69
2023/11/09 05:25:35;;;;;;;3.50;3.00;;;8.60;99.90;;;;;;5062490;28;20191;-66
2023/11/09 05:28:03;;;;;;;8.43;3.20;;;8.60;99.90;;;;;;5062989;28;20213;-68
2023/11/09 05:30:28;;;;;;;4.53;3.10;;;8.60;99.90;;;;;;5065836;28;20475;-69
2023/11/09 05:32:54;;;;;;;5.03;3.63;;;8.60;99.90;;;;;;5060176;28;20520;-68
2023/11/09 05:35:19;;;;;;;6.80;3.60;;;8.60;99.90;;;;;;5066756;28;20258;-68
2023/11/09 05:37:45;;;;;;;6.07;3.10;;;8.70;99.90;;;;;;5063118;28;20297;-68
2023/11/09 05:40:12;;;;;;;3.93;2.80;;;8.60;99.90;;;;;;5063989;28;20317;-68
2023/11/09 05:42:41;;;;;;;4.57;2.93;;;8.70;99.90;;;;;;5063587;28;20226;-68
2023/11/09 05:45:09;;;;;;;3.80;2.70;;;8.70;99.90;;;;;;5065243;28;20915;-68
2023/11/09 05:47:35;;;;;;;3.60;2.70;;;8.70;99.90;;;;;;5063873;28;20826;-68
2023/11/09 05:50:01;;;;;;;3.40;2.50;;;8.70;99.90;;;;;;5064488;28;20524;-68
2023/11/09 05:52:26;;;;;;;6.60;3.00;;;8.70;99.90;;;;;;5064036;28;20517;-68
2023/11/09 05:54:52;;;;;;;3.70;2.77;;;8.80;99.90;;;;;;5063704;28;20195;-68
2023/11/09 05:57:18;;;;;;;4.20;2.90;;;8.80;99.90;;;;;;5063372;28;20172;-68
2023/11/09 05:59:46;;;;;;;3.77;2.70;;;8.80;99.90;;;;;;5064485;28;20258;-68
2023/11/09 06:02:15;;;;;;;9.57;3.23;;;8.80;99.90;;;;;;5059818;28;21707;-68
2023/11/09 06:04:42;;;;;;;5.60;3.20;;;8.90;99.90;;;;;;5060689;28;20429;-68
2023/11/09 06:07:11;;;;;;;11.27;3.27;;;8.90;99.90;;;;;;5062503;28;20837;-68
2023/11/09 06:09:41;;;;;;;4.73;3.10;;;8.90;99.90;;;;;;5061543;28;20413;-68
2023/11/09 06:12:08;;;;;;;5.63;2.60;;;9.00;99.90;;;;;;5064653;28;20778;-68
2023/11/09 06:14:34;;;;;;;5.83;3.30;;;9.00;99.90;;;;;;5062565;28;20471;-68
2023/11/09 06:16:59;;;;;;;3.50;2.70;;;9.10;99.90;;;;;;5063282;28;20425;-67
2023/11/09 06:19:26;;;;;;;4.20;3.30;;;9.10;99.90;;;;;;5064576;28;20183;-68
2023/11/09 06:21:52;;;;;;;4.00;3.00;;;9.10;99.90;;;;;;5058206;28;20170;-68
2023/11/09 06:24:18;;;;;;;3.83;2.70;;;9.20;99.90;;;;;;5062017;28;20510;-68
2023/11/09 06:26:44;;;;;;;5.27;2.70;;;9.20;99.90;;;;;;5059398;28;20429;-68
2023/11/09 06:29:10;;;;;;;4.27;2.93;;;9.30;99.90;;;;;;5057445;28;20188;-69
2023/11/09 06:31:37;;;;;;;3.70;2.50;;;9.30;99.90;;;;;;5067529;28;20413;-68
2023/11/09 06:34:03;;;;;;;7.90;2.70;;;9.30;99.90;;;;;;5062903;28;20715;-68
2023/11/09 06:36:29;;;;;;;3.60;2.73;;;9.40;99.90;;;;;;5063282;28;20466;-67
2023/11/09 06:38:55;;;;;;;5.73;2.97;;;9.40;99.90;;;;;;5064163;28;20429;-67
2023/11/09 06:41:21;;;;;;;5.17;2.90;;;9.50;99.90;;;;;;5063388;28;20221;-68
2023/11/09 06:43:46;;;;;;;4.90;3.17;;;9.60;99.90;;;;;;5064824;28;20206;-68
2023/11/09 06:46:12;;;;;;;5.90;2.93;;;9.60;99.90;;;;;;5058144;28;20198;-68
2023/11/09 06:48:38;;;;;;;5.30;3.33;;;9.60;99.90;;;;;;5062557;28;20685;-68
2023/11/09 06:51:04;;;;;;;3.30;2.57;;;9.60;99.90;;;;;;5060220;28;20182;-68
2023/11/09 06:53:30;;;;;;;5.10;3.43;;;9.60;99.90;;;;;;5063299;28;20683;-68
2023/11/09 06:55:56;;;;;;;7.27;3.83;;;9.60;99.90;;;;;;5060061;28;20673;-68
2023/11/09 06:58:21;;;;;;;5.20;3.37;;;9.70;99.90;;;;;;5060970;28;20516;-68
2023/11/09 07:00:47;;;;;;;7.43;3.43;;;9.60;99.90;;;;;;5060863;28;20183;-68
2023/11/09 07:03:12;;;;;;;6.10;4.30;;;9.60;99.90;;;;;;5063372;28;20875;-68
2023/11/09 07:05:41;;;;;;;5.20;3.60;;;9.60;99.90;;;;;;5062106;28;20198;-68
2023/11/09 07:08:06;;;;;;;7.50;4.27;;;9.50;99.90;;;;;;5061301;28;20254;-68
2023/11/09 07:10:33;;;;;;;5.90;4.63;;;9.50;99.90;;;;;;5064832;28;20852;-69
2023/11/09 07:12:59;;;;;;;10.10;4.37;;;9.50;99.90;;;;;;5061380;28;20246;-68
2023/11/09 07:15:28;;;;;;;5.43;4.33;;;9.50;99.90;;;;;;5056769;28;20466;-68
2023/11/09 07:17:53;;;;;;;7.57;4.20;;;9.50;99.90;;;;;;5062116;28;20763;-69
2023/11/09 07:20:21;;;;;;;7.43;4.50;;;9.50;99.90;;;;;;5061007;28;20440;-68
2023/11/09 07:22:50;;;;;;;5.10;3.87;;;9.60;99.90;;;;;;5058871;28;20344;-68
2023/11/09 07:25:16;;;;;;;7.67;3.43;;;9.60;99.90;;;;;;5064798;28;20436;-68
2023/11/09 07:27:42;;;;;;;6.30;4.10;;;9.60;99.90;;;;;;5057584;28;20935;-69
2023/11/09 07:30:08;;;;;;;4.90;3.80;;;9.60;99.90;;;;;;5058137;28;20179;-69
2023/11/09 07:32:34;;;;;;;5.30;3.57;;;9.60;99.90;;;;;;5056569;28;20479;-69
2023/11/09 07:35:01;;;;;;;6.60;3.87;;;9.70;99.90;;;;;;5048746;28;20492;-69
2023/11/09 07:37:27;;;;;;;4.73;3.50;;;9.70;99.90;;;;;;5061865;28;20414;-69
2023/11/09 07:39:53;;;;;;;9.20;3.13;;;9.70;99.90;;;;;;5060137;28;20862;-68
2023/11/09 07:42:19;;;;;;;6.90;3.80;;;9.70;99.90;;;;;;5061839;28;20191;-68
2023/11/09 07:44:44;;;;;;;7.17;4.53;;;9.70;99.90;;;;;;5055434;28;20448;-68
2023/11/09 07:47:10;;;;;;;5.23;3.50;;;9.80;99.90;;;;;;5053722;28;20179;-69
2023/11/09 07:49:36;;;;;;;5.57;4.57;;;9.80;99.90;;;;;;5058402;28;20191;-68
2023/11/09 07:52:03;;;;;;;5.40;3.90;;;9.90;99.90;;;;;;5056783;28;20183;-68
2023/11/09 07:54:30;;;;;;;5.90;3.90;;;10.00;99.90;;;;;;5059080;28;20202;-68
2023/11/09 07:56:58;;;;;;;4.97;2.90;;;10.10;99.90;;;;;;5057183;28;20425;-68
2023/11/09 07:59:23;;;;;;;6.60;4.60;;;10.20;99.90;;;;;;5056858;28;20803;-68
2023/11/09 08:01:49;;;;;;;5.27;3.63;;;10.30;99.90;;;;;;5054898;28;20428;-67
2023/11/09 08:04:15;;;;;;;6.20;3.57;;;10.40;99.90;;;;;;5059701;28;20202;-68
2023/11/09 08:06:42;;;;;;;7.27;3.50;;;10.40;99.90;;;;;;5053305;28;20429;-67
2023/11/09 08:09:09;;;;;;;5.20;3.40;;;10.50;99.90;;;;;;5061140;28;20198;-67
2023/11/09 08:11:37;;;;;;;6.83;3.27;;;10.50;99.90;;;;;;5060518;28;20421;-68
2023/11/09 08:14:04;;;;;;;8.13;3.40;;;10.60;99.90;;;;;;5051695;28;20468;-66
2023/11/09 08:16:30;;;;;;;4.23;3.00;;;10.60;99.90;;;;;;5059739;28;20429;-68
2023/11/09 08:18:56;;;;;;;5.03;3.30;;;10.70;99.90;;;;;;5057302;28;20433;-68
2023/11/09 08:21:25;;;;;;;4.37;2.70;;;10.70;99.90;;;;;;5059188;28;21018;-68
2023/11/09 08:23:51;;;;;;;7.33;3.53;;;10.70;99.90;;;;;;5056564;28;20199;-68
2023/11/09 08:26:17;;;;;;;6.70;3.00;;;10.70;99.90;;;;;;5059840;28;20426;-67
2023/11/09 08:28:43;;;;;;;5.80;3.20;;;10.70;99.90;;;;;;5061982;28;20449;-68
2023/11/09 08:31:08;;;;;;;4.60;3.33;;;10.70;99.90;;;;;;5056703;28;20189;-67
2023/11/09 08:33:35;;;;;;;10.20;3.40;;;10.70;99.90;;;;;;5059154;28;20857;-68
2023/11/09 08:36:04;;;;;;;6.40;3.43;;;10.80;99.90;;;;;;5055353;28;20218;-69
2023/11/09 08:38:33;;;;;;;5.00;3.20;;;10.70;99.90;;;;;;5071082;28;20846;-67
2023/11/09 08:41:00;;;;;;;5.63;3.00;;;10.70;99.90;;;;;;5057264;28;20405;-67
2023/11/09 08:43:26;;;;;;;4.63;3.43;;;10.70;99.90;;;;;;5059980;28;20438;-68
2023/11/09 08:45:52;;;;;;;6.70;3.43;;;10.70;99.90;;;;;;5060845;28;20476;-68
2023/11/09 08:48:18;;;;;;;5.63;4.37;;;10.70;99.90;;;;;;5062678;28;20187;-68
2023/11/09 08:50:45;;;;;;;6.73;5.07;;;10.70;99.90;;;;;;5056373;28;20183;-68
2023/11/09 08:53:11;;;;;;;6.63;4.17;;;10.70;99.90;;;;;;5059215;28;20580;-68
2023/11/09 08:55:39;;;;;;;10.60;4.10;;;10.70;99.90;;;;;;5059048;28;20986;-68
2023/11/09 08:58:05;;;;;;;9.47;5.10;;;10.70;99.90;;;;;;5063448;28;20191;-68
2023/11/09 09:00:32;;;;;;;7.93;4.63;;;10.80;99.90;;;;;;5066489;28;20421;-68
2023/11/09 09:02:58;;;;;;;7.60;4.50;;;10.80;99.90;;;;;;5060690;28;20222;-69
2023/11/09 09:05:28;;;;;;;6.73;4.43;;;10.80;99.90;;;;;;5058483;28;21042;-67
2023/11/09 09:07:56;;;;;;;6.07;4.50;;;10.80;99.90;;;;;;5065430;28;20440;-67
2023/11/09 09:10:23;;;;;;;9.13;4.13;;;10.80;99.90;;;;;;5064044;28;20420;-68
2023/11/09 09:12:51;;;;;;;6.90;3.80;;;10.90;99.90;;;;;;5062797;28;20471;-68
2023/11/09 09:15:17;;;;;;;9.17;4.57;;;10.90;99.90;;;;;;5067151;28;20461;-68
2023/11/09 09:17:48;;;;;;;5.43;3.00;;;10.90;99.90;;;;;;5077035;28;20428;-68
2023/11/09 09:20:15;;;;;;;5.67;3.10;;;10.90;99.90;;;;;;5068160;28;20486;-69
2023/11/09 09:22:45;;;;;;;6.20;3.37;;;10.90;99.90;;;;;;5075554;28;20466;-69
2023/11/09 09:25:11;;;;;;;7.00;3.10;;;10.90;99.90;;;;;;5070075;28;20452;-68
2023/11/09 09:27:43;;;;;;;5.80;3.07;;;10.90;99.90;;;;;;5067741;28;20488;-68
2023/11/09 09:30:10;;;;;;;4.60;2.93;;;10.90;99.90;;;;;;5070952;28;21235;-68
2023/11/09 09:32:37;;;;;;;4.80;2.90;;;10.90;99.90;;;;;;5069479;28;20449;-69
2023/11/09 09:35:07;;;;;;;3.87;2.67;;;11.00;99.90;;;;;;5071204;28;20463;-68
2023/11/09 09:37:37;;;;;;;5.70;3.23;;;11.00;99.90;;;;;;5066626;28;20421;-68
2023/11/09 09:40:16;;;;;;;3.83;2.80;;;11.00;99.90;;;;;;5064541;28;20911;-68
2023/11/09 09:42:50;;;;;;;5.30;3.00;;;10.90;99.90;;;;;;5064677;28;20440;-70
2023/11/09 09:45:30;;;;;;;4.90;3.27;;;11.00;99.90;;;;;;5063564;28;20486;-69
2023/11/09 09:48:01;;;;;;;5.53;3.10;;;11.10;99.90;;;;;;5065059;28;20779;-70
2023/11/09 09:50:37;;;;;;;8.17;3.10;;;11.10;99.90;;;;;;5060642;28;20441;-68
2023/11/09 09:53:04;;;;;;;9.67;3.20;;;11.10;99.90;;;;;;5060209;28;20445;-69
2023/11/09 09:55:30;;;;;;;7.83;3.60;;;11.20;99.90;;;;;;5058479;28;20464;-70
2023/11/09 09:57:58;;;;;;;6.50;3.50;;;11.20;99.90;;;;;;5064302;28;20903;-69
2023/11/09 10:00:27;;;;;;;5.10;3.10;;;11.20;99.90;;;;;;5056428;28;20287;-69
2023/11/09 10:02:55;;;;;;;5.20;3.37;;;11.20;99.90;;;;;;5062209;28;22446;-70
2023/11/09 10:05:25;;;;;;;4.97;2.73;;;11.30;99.90;;;;;;5060029;28;20422;-70
2023/11/09 10:08:10;;;;;;;4.20;2.77;;;11.30;99.90;;;;;;5058054;28;20421;-70
2023/11/09 10:10:47;;;;;;;5.80;3.17;;;11.30;99.90;;;;;;5055580;28;20553;-70
2023/11/09 10:13:13;;;;;;;6.47;2.70;;;11.30;99.90;;;;;;5060511;28;21002;-70
2023/11/09 10:15:43;;;;;;;5.63;2.50;;;11.40;99.90;;;;;;5062347;28;20822;-71
2023/11/09 10:18:12;;;;;;;4.07;2.60;;;11.50;99.90;;;;;;5060061;28;20437;-70
2023/11/09 10:20:55;;;;;;;3.37;2.50;;;11.50;99.90;;;;;;5064857;28;20418;-70
2023/11/09 10:23:21;;;;;;;5.17;2.70;;;11.60;99.90;;;;;;5063571;28;20979;-71
2023/11/09 10:25:47;;;;;;;5.70;2.57;;;11.70;99.90;;;;;;5057349;28;20452;-69
2023/11/09 10:28:14;;;;;;;3.07;1.70;;;11.70;99.90;;;;;;5060542;28;20418;-71
2023/11/09 10:30:46;;;;;;;3.60;1.73;;;11.80;99.90;;;;;;5059199;28;20506;-68
2023/11/09 10:33:14;;;;;;;3.47;1.80;;;11.80;99.90;;;;;;5057140;28;20560;-68
2023/11/09 10:35:41;;;;;;;2.60;1.67;;;11.80;99.90;;;;;;5059321;28;20497;-69
2023/11/09 10:38:09;;;;;;;5.90;1.53;;;11.90;99.90;;;;;;5062765;28;20443;-69
2023/11/09 10:40:35;;;;;;;2.40;1.67;;;11.90;99.90;;;;;;5053219;28;20437;-69
2023/11/09 10:43:01;;;;;;;2.73;2.03;;;12.00;99.90;;;;;;5052990;28;21043;-69
2023/11/09 10:45:30;;;;;;;2.70;1.73;;;12.00;99.90;;;;;;5060998;28;20421;-69
2023/11/09 10:47:59;;;;;;;2.43;1.57;;;12.20;99.90;;;;;;5064645;28;20409;-69
2023/11/09 10:50:26;;;;;;;2.10;1.60;;;12.30;99.90;;;;;;5059116;28;20768;-70
2023/11/09 10:52:56;;;;;;;3.17;1.77;;;12.30;99.90;;;;;;5060204;28;20452;-69
2023/11/09 10:55:23;;;;;;;3.80;1.80;;;12.30;99.90;;;;;;5050474;28;20571;-70
2023/11/09 10:57:49;;;;;;;3.10;1.53;;;12.30;99.90;;;;;;5056846;28;20421;-70
2023/11/09 11:00:32;;;;;;;2.23;1.40;;;12.40;99.90;;;;;;5062871;28;20817;-70
2023/11/09 11:03:11;;;;;;;2.07;1.40;;;12.50;99.90;;;;;;5063607;28;20470;-70
2023/11/09 11:05:47;;;;;;;2.43;1.60;;;12.60;99.90;;;;;;5062080;28;20850;-70
2023/11/09 11:08:17;;;;;;;4.13;2.17;;;12.70;99.90;;;;;;5054245;28;20433;-69
2023/11/09 11:10:51;;;;;;;2.87;1.50;;;12.80;99.90;;;;;;5061687;28;20425;-71
2023/11/09 11:13:19;;;;;;;2.77;1.30;;;12.80;99.90;;;;;;5060897;28;20448;-70
2023/11/09 11:16:18;;;;;;;2.30;1.40;;;13.00;99.90;;;;;;5063835;28;20574;-69
2023/11/09 11:19:05;;;;;;;2.43;1.40;;;12.90;99.90;;;;;;5063549;28;20410;-68
2023/11/09 11:21:41;;;;;;;3.23;1.50;;;12.90;99.90;;;;;;5059138;28;20488;-69
2023/11/09 11:24:24;;;;;;;2.40;1.50;;;13.00;99.90;;;;;;5058994;28;20574;-68
2023/11/09 11:27:06;;;;;;;2.50;1.80;;;13.00;99.90;;;;;;5062812;28;20417;-68
2023/11/09 11:29:35;;;;;;;1.90;1.30;;;13.00;99.90;;;;;;5063192;28;21041;-69
2023/11/09 11:32:03;;;;;;;2.77;1.63;;;13.10;99.90;;;;;;5065586;28;20513;-69
2023/11/09 11:34:54;;;;;;;2.10;1.50;;;12.90;99.90;;;;;;5059921;28;20589;-69
2023/11/09 11:37:31;;;;;;;4.80;1.63;;;13.00;99.90;;;;;;5058706;28;20440;-68
2023/11/09 11:40:00;;;;;;;2.20;1.50;;;13.10;99.90;;;;;;5045529;28;20520;-69
2023/11/09 11:42:27;;;;;;;2.40;1.60;;;13.10;99.90;;;;;;5060432;28;20437;-69
2023/11/09 11:44:55;;;;;;;2.67;1.77;;;13.20;99.90;;;;;;5065325;28;20459;-69
2023/11/09 11:47:24;;;;;;;2.67;1.60;;;13.20;99.90;;;;;;5061400;28;20441;-69
2023/11/09 11:49:50;;;;;;;3.50;1.50;;;13.30;99.90;;;;;;5059043;28;20947;-69
2023/11/09 11:52:18;;;;;;;4.53;1.67;;;13.30;99.90;;;;;;5064006;28;20539;-69
2023/11/09 11:54:44;;;;;;;2.20;1.60;;;13.40;99.90;;;;;;5061957;28;20573;-68
2023/11/09 11:57:11;;;;;;;3.40;1.63;;;13.50;99.90;;;;;;5056439;28;20438;-68
2023/11/09 11:59:40;;;;;;;2.73;1.93;;;13.50;99.90;;;;;;5057790;28;20829;-69
2023/11/09 12:02:09;;;;;;;3.07;1.70;;;13.60;99.90;;;;;;5058971;28;20421;-69
2023/11/09 12:04:35;;;;;;;3.00;1.80;;;13.50;99.90;;;;;;5056429;28;20433;-68
2023/11/09 12:07:08;;;;;;;3.07;1.80;;;13.30;99.90;;;;;;5058675;28;20465;-69
2023/11/09 12:09:36;;;;;;;3.87;1.90;;;13.30;99.90;;;;;;5061734;28;20429;-69
2023/11/09 12:12:01;;;;;;;3.93;1.90;;;13.20;99.90;;;;;;5061180;28;21270;-70
2023/11/09 12:14:28;;;;;;;2.40;1.60;;;13.20;99.90;;;;;;5059274;28;20473;-69
2023/11/09 12:16:54;;;;;;;5.10;2.43;;;13.20;99.90;;;;;;5061142;28;20512;-68
2023/11/09 12:19:20;;;;;;;2.20;1.50;;;13.00;99.90;;;;;;5061253;28;20831;-69
2023/11/09 12:21:46;;;;;;;3.83;2.53;;;13.10;99.90;;;;;;5061963;28;20187;-70
2023/11/09 12:24:17;;;;;;;3.50;1.80;;;13.10;99.90;;;;;;5060303;28;20216;-70
2023/11/09 12:26:44;;;;;;;2.57;1.50;;;13.20;99.90;;;;;;5061196;28;20456;-70
2023/11/09 12:29:10;;;;;;;2.40;1.90;;;13.20;99.90;;;;;;5060708;28;20452;-68
2023/11/09 12:31:35;;;;;;;4.23;1.53;;;13.20;99.90;;;;;;5059903;28;20482;-68
2023/11/09 12:34:03;;;;;;;2.20;1.60;;;13.10;99.90;;;;;;5066010;28;20931;-68
2023/11/09 12:36:29;;;;;;;2.90;1.60;;;13.10;99.90;;;;;;5060705;28;20186;-69
2023/11/09 12:38:55;;;;;;;3.30;1.70;;;13.10;99.90;;;;;;5066839;28;21135;-70
2023/11/09 12:41:31;;;;;;;4.27;1.60;;;13.20;99.90;;;;;;5063747;28;21063;-68
2023/11/09 12:43:57;;;;;;;2.50;1.70;;;13.10;99.90;;;;;;5062102;28;20465;-68
2023/11/09 12:46:23;;;;;;;5.03;2.00;;;13.00;99.90;;;;;;5061075;28;20422;-70
2023/11/09 12:48:49;;;;;;;2.60;1.60;;;13.00;99.90;;;;;;5057636;28;20212;-70
2023/11/09 12:51:24;;;;;;;4.57;2.03;;;13.20;99.90;;;;;;5062751;28;20445;-70
2023/11/09 12:53:51;;;;;;;2.50;1.60;;;13.30;99.90;;;;;;5059347;28;20432;-71
2023/11/09 12:56:19;;;;;;;2.53;1.53;;;13.50;99.90;;;;;;5060560;28;20433;-70
2023/11/09 12:58:48;;;;;;;2.87;1.60;;;13.60;99.90;;;;;;5063872;28;20433;-71
2023/11/09 13:01:14;;;;;;;3.07;1.40;;;13.70;99.90;;;;;;5052493;28;20437;-71
2023/11/09 13:03:48;;;;;;;2.70;1.50;;;13.80;99.90;;;;;;5061413;28;20449;-71
2023/11/09 13:06:22;;;;;;;3.03;1.57;;;14.00;99.90;;;;;;5062476;28;20191;-70